createdAt,value
2018-04-29T00:01:26.432Z,20
2018-04-29T00:11:28.473Z,20
2018-04-29T00:21:27.382Z,20
2018-04-29T00:31:27.109Z,20
2018-04-29T00:41:28.864Z,20
2018-04-29T00:51:27.758Z,20
2018-04-29T01:01:29.523Z,20
2018-04-29T01:11:30.684Z,20
2018-04-29T01:21:28.884Z,20
2018-04-29T01:31:27.509Z,20
2018-04-29T01:41:28.989Z,20
2018-04-29T01:51:27.738Z,20
2018-04-29T02:01:27.467Z,20
2018-04-29T02:11:26.772Z,20
2018-04-29T02:21:28.349Z,19
2018-04-29T02:31:27.696Z,20
2018-04-29T02:41:26.900Z,20
2018-04-29T02:51:28.031Z,19
2018-04-29T03:01:27.348Z,20
2018-04-29T03:11:27.344Z,20
2018-04-29T03:21:26.270Z,19
2018-04-29T03:31:26.487Z,20
2018-04-29T03:41:28.341Z,19
2018-04-29T03:51:26.276Z,20
2018-04-29T04:01:28.066Z,19
2018-04-29T04:11:28.719Z,20
2018-04-29T04:21:27.933Z,19
2018-04-29T04:31:29.238Z,19
2018-04-29T04:41:28.028Z,19
2018-04-29T04:51:27.770Z,19
2018-04-29T05:01:26.464Z,19
2018-04-29T05:11:27.141Z,20
2018-04-29T05:21:28.125Z,19
2018-04-29T05:31:29.856Z,20
2018-04-29T05:41:27.909Z,20
2018-04-29T05:51:27.623Z,20
2018-04-29T06:01:28.176Z,20
2018-04-29T06:11:29.498Z,20
2018-04-29T06:21:26.992Z,20
2018-04-29T06:31:27.773Z,20
2018-04-29T06:41:26.580Z,20
2018-04-29T06:51:27.889Z,21
2018-04-29T07:01:27.739Z,21
2018-04-29T07:11:26.780Z,21
2018-04-29T07:21:26.996Z,21
2018-04-29T07:31:26.753Z,22
2018-04-29T07:41:29.780Z,22
2018-04-29T07:51:26.466Z,22
2018-04-29T08:01:26.869Z,22
2018-04-29T08:11:26.673Z,22
2018-04-29T08:21:26.974Z,22
2018-04-29T08:31:26.747Z,22
2018-04-29T08:41:26.778Z,22
2018-04-29T08:51:27.163Z,22
2018-04-29T09:01:27.928Z,23
2018-04-29T09:11:28.396Z,23
2018-04-29T09:21:26.340Z,23
2018-04-29T09:31:28.280Z,24
2018-04-29T09:41:27.424Z,24
2018-04-29T09:51:26.159Z,24
2018-04-29T10:01:29.687Z,25
2018-04-29T10:11:27.945Z,25
2018-04-29T10:21:27.942Z,25
2018-04-29T10:31:26.995Z,25
2018-04-29T10:41:27.507Z,26
2018-04-29T10:53:54.711Z,26
2018-04-29T11:01:26.879Z,26
2018-04-29T11:11:27.164Z,27
2018-04-29T11:21:26.591Z,26
2018-04-29T11:31:26.757Z,26
2018-04-29T11:41:27.665Z,27
2018-04-29T11:51:26.530Z,28
2018-04-29T12:01:26.847Z,27
2018-04-29T12:11:26.600Z,27
2018-04-29T12:31:26.976Z,27
2018-04-29T12:41:28.015Z,28
2018-04-29T12:51:26.897Z,28
2018-04-29T13:01:27.108Z,27
2018-04-29T13:11:28.655Z,27
2018-04-29T13:21:26.701Z,27
2018-04-29T13:31:26.522Z,27
2018-04-29T13:41:28.297Z,27
2018-04-29T13:51:27.150Z,27
2018-04-29T14:01:26.930Z,26
2018-04-29T14:11:27.058Z,26
2018-04-29T14:21:26.447Z,26
2018-04-29T14:31:27.128Z,25
2018-04-29T14:41:27.049Z,26
2018-04-29T14:51:26.229Z,26
2018-04-29T15:01:27.255Z,25
2018-04-29T15:11:26.503Z,26
2018-04-29T15:21:27.122Z,26
2018-04-29T15:31:27.196Z,26
2018-04-29T15:41:27.008Z,26
2018-04-29T15:51:26.955Z,26
2018-04-29T16:01:26.965Z,26
2018-04-29T16:11:27.089Z,26
2018-04-29T16:21:26.561Z,25
2018-04-29T16:31:29.317Z,25
2018-04-29T16:41:27.291Z,25
2018-04-29T16:51:27.224Z,25
2018-04-29T17:01:27.143Z,25
2018-04-29T17:11:32.892Z,26
2018-04-29T17:21:28.333Z,26
2018-04-29T17:51:28.978Z,24
2018-04-29T18:01:49.585Z,24
2018-04-29T18:11:34.374Z,24
2018-04-29T18:31:34.528Z,23
2018-04-29T18:41:49.044Z,23
2018-04-29T18:51:43.735Z,23
2018-04-29T19:01:33.412Z,23
2018-04-29T19:11:46.548Z,23
2018-04-29T19:41:31.695Z,22
2018-04-29T19:51:42.558Z,22
2018-04-29T20:01:26.646Z,22
